createdAt,value
2019-03-13T00:02:11.484Z,4.00
2019-03-13T00:06:19.660Z,4.00
2019-03-13T00:10:27.789Z,3.90
2019-03-13T00:14:35.932Z,3.90
2019-03-13T00:18:44.047Z,4.00
2019-03-13T00:22:52.228Z,4.10
2019-03-13T00:27:00.350Z,4.20
2019-03-13T00:31:08.466Z,4.20
2019-03-13T00:35:16.633Z,4.20
2019-03-13T00:39:24.838Z,4.20
2019-03-13T00:43:33.145Z,4.30
2019-03-13T00:47:41.282Z,4.30
2019-03-13T00:51:49.424Z,4.40
2019-03-13T00:55:57.542Z,4.40
2019-03-13T01:00:05.762Z,4.40
2019-03-13T01:04:19.201Z,4.40
2019-03-13T01:08:27.315Z,4.30
2019-03-13T01:12:35.447Z,4.40
2019-03-13T01:16:43.568Z,4.40
2019-03-13T01:20:51.749Z,4.30
2019-03-13T01:24:59.913Z,4.30
2019-03-13T01:29:08.020Z,4.30
2019-03-13T01:33:16.785Z,4.30
2019-03-13T01:37:24.901Z,4.30
2019-03-13T01:41:33.023Z,4.40
2019-03-13T01:45:40.448Z,4.50
2019-03-13T01:49:48.580Z,4.60
2019-03-13T01:53:56.725Z,4.60
2019-03-13T01:58:04.841Z,4.60
2019-03-13T02:02:12.964Z,4.60
2019-03-13T02:06:21.166Z,4.60
2019-03-13T02:10:29.301Z,4.60
2019-03-13T02:14:37.438Z,4.70
2019-03-13T02:18:45.560Z,4.70
2019-03-13T02:22:53.748Z,4.70
2019-03-13T02:27:01.890Z,4.70
2019-03-13T02:31:10.037Z,4.70
2019-03-13T02:35:18.199Z,4.70
2019-03-13T02:39:26.322Z,4.80
2019-03-13T02:43:34.446Z,4.80
2019-03-13T02:47:42.567Z,4.80
2019-03-13T02:51:50.679Z,4.80
2019-03-13T02:55:58.792Z,4.80
2019-03-13T03:00:08.393Z,4.80
2019-03-13T03:04:16.513Z,4.80
2019-03-13T03:08:24.639Z,4.80
2019-03-13T03:12:32.768Z,4.80
2019-03-13T03:16:40.899Z,4.90
2019-03-13T03:20:49.015Z,4.90
2019-03-13T03:24:57.127Z,4.90
2019-03-13T03:29:05.233Z,4.90
2019-03-13T03:33:13.357Z,4.90
2019-03-13T03:37:21.477Z,4.90
2019-03-13T03:41:29.702Z,4.80
2019-03-13T03:45:37.815Z,4.70
2019-03-13T03:49:45.314Z,4.60
2019-03-13T03:53:53.426Z,4.60
2019-03-13T03:58:01.577Z,4.60
2019-03-13T04:06:17.701Z,4.70
2019-03-13T04:10:25.898Z,4.70
2019-03-13T04:14:34.022Z,4.70
2019-03-13T04:18:42.140Z,4.70
2019-03-13T04:22:50.286Z,4.70
2019-03-13T04:26:58.404Z,4.70
2019-03-13T04:31:06.585Z,4.70
2019-03-13T04:35:14.698Z,4.70
2019-03-13T04:39:22.810Z,4.70
2019-03-13T04:43:30.937Z,4.60
2019-03-13T04:47:39.049Z,4.60
2019-03-13T04:51:47.366Z,4.60
2019-03-13T04:55:55.469Z,4.60
2019-03-13T05:00:03.809Z,4.50
2019-03-13T05:04:11.963Z,4.40
2019-03-13T05:08:44.615Z,4.50
2019-03-13T05:12:42.679Z,4.60
2019-03-13T05:16:50.794Z,4.60
2019-03-13T05:20:58.905Z,4.70
2019-03-13T05:25:07.174Z,4.70
2019-03-13T05:29:15.471Z,4.70
2019-03-13T05:33:23.657Z,4.70
2019-03-13T05:37:31.774Z,4.80
2019-03-13T05:41:39.995Z,4.80
2019-03-13T05:45:48.162Z,4.80
2019-03-13T05:49:56.273Z,4.80
2019-03-13T05:54:04.544Z,4.90
2019-03-13T05:58:12.672Z,4.80
2019-03-13T06:02:20.809Z,4.90
2019-03-13T06:06:28.969Z,4.90
2019-03-13T06:10:37.061Z,4.90
2019-03-13T06:14:44.559Z,4.90
2019-03-13T06:18:53.100Z,4.90
2019-03-13T06:23:00.815Z,4.90
2019-03-13T06:27:08.932Z,4.90
2019-03-13T06:31:17.165Z,4.90
2019-03-13T06:35:25.308Z,4.90
2019-03-13T06:39:33.444Z,5.00
2019-03-13T06:43:41.667Z,5.00
2019-03-13T06:47:49.777Z,5.00
2019-03-13T06:51:57.236Z,5.00
2019-03-13T06:56:05.856Z,5.10
2019-03-13T07:00:22.053Z,5.10
2019-03-13T07:04:35.298Z,5.20
2019-03-13T07:08:48.497Z,5.20
2019-03-13T07:13:07.026Z,5.20
2019-03-13T07:18:19.088Z,5.20
2019-03-13T07:22:49.701Z,5.20
2019-03-13T07:27:03.033Z,5.10
2019-03-13T07:31:49.500Z,5.00
2019-03-13T07:36:07.826Z,4.90
2019-03-13T07:41:19.061Z,4.80
2019-03-13T07:45:31.430Z,5.00
2019-03-13T07:49:43.803Z,5.00
2019-03-13T07:53:57.211Z,5.10
2019-03-13T07:58:10.670Z,5.10
2019-03-13T08:02:24.189Z,5.20
2019-03-13T08:06:38.396Z,5.00
2019-03-13T08:10:51.885Z,5.00
2019-03-13T08:15:05.248Z,5.00
2019-03-13T08:19:18.638Z,5.10
2019-03-13T08:23:36.113Z,5.20
2019-03-13T08:29:54.144Z,5.20
2019-03-13T08:35:05.576Z,5.20
2019-03-13T08:41:27.479Z,5.10
2019-03-13T08:45:48.946Z,5.20
2019-03-13T08:50:04.266Z,5.10
2019-03-13T08:54:22.594Z,5.20
2019-03-13T08:58:38.088Z,5.40
2019-03-13T09:02:54.390Z,5.50
2019-03-13T09:07:08.058Z,5.70
2019-03-13T09:11:33.388Z,5.90
2019-03-13T09:15:47.141Z,6.00
2019-03-13T09:20:00.418Z,5.80
2019-03-13T09:24:13.786Z,5.80
2019-03-13T09:29:00.559Z,5.90
2019-03-13T09:33:16.902Z,5.90
2019-03-13T09:37:31.227Z,5.80
2019-03-13T09:42:00.057Z,5.80
2019-03-13T09:46:14.390Z,5.60
2019-03-13T09:50:29.905Z,5.70
2019-03-13T09:54:42.269Z,5.70
2019-03-13T09:59:01.098Z,6.00
2019-03-13T10:03:29.112Z,6.30
2019-03-13T10:07:49.452Z,6.60
2019-03-13T10:12:01.214Z,6.30
2019-03-13T10:20:32.502Z,6.10
2019-03-13T10:25:45.497Z,6.60
2019-03-13T10:30:01.901Z,7.00
2019-03-13T10:34:15.437Z,7.10
2019-03-13T10:38:28.686Z,6.80
2019-03-13T10:42:46.912Z,6.80
2019-03-13T10:47:01.032Z,6.80
2019-03-13T10:51:15.267Z,6.70
2019-03-13T10:55:28.897Z,6.70
2019-03-13T10:59:46.258Z,6.40
2019-03-13T11:03:59.534Z,6.00
2019-03-13T11:08:44.446Z,6.00
2019-03-13T11:12:58.833Z,6.10
2019-03-13T11:17:12.314Z,6.20
2019-03-13T11:21:26.128Z,6.40
2019-03-13T11:25:44.321Z,6.80
2019-03-13T11:29:57.973Z,6.70
2019-03-13T11:34:12.262Z,6.70
2019-03-13T11:40:30.222Z,6.70
2019-03-13T11:44:53.177Z,6.80
2019-03-13T11:53:20.938Z,6.90
2019-03-13T11:57:37.283Z,6.90
2019-03-13T12:01:56.812Z,6.80
2019-03-13T12:06:13.183Z,6.70
2019-03-13T12:10:27.417Z,7.00
2019-03-13T12:14:44.596Z,7.00
2019-03-13T12:19:03.048Z,6.80
2019-03-13T12:23:16.302Z,6.80
2019-03-13T12:27:29.853Z,6.60
2019-03-13T12:33:49.144Z,6.40
2019-03-13T12:38:06.484Z,6.30
2019-03-13T12:42:22.959Z,6.40
2019-03-13T12:46:35.338Z,6.80
2019-03-13T12:50:49.715Z,7.00
2019-03-13T12:57:08.109Z,7.20
2019-03-13T13:01:21.481Z,7.10
2019-03-13T13:05:33.867Z,6.50
2019-03-13T13:09:48.200Z,6.40
2019-03-13T13:14:02.091Z,6.30
2019-03-13T13:18:15.361Z,6.20
2019-03-13T13:22:23.586Z,6.10
2019-03-13T13:26:31.790Z,6.00
2019-03-13T13:30:39.946Z,6.20
2019-03-13T13:34:48.107Z,6.30
2019-03-13T13:38:56.347Z,6.40
2019-03-13T13:43:04.539Z,6.50
2019-03-13T13:47:12.779Z,6.50
2019-03-13T13:51:20.918Z,6.60
2019-03-13T13:55:29.059Z,6.70
2019-03-13T13:59:37.235Z,6.70
2019-03-13T14:03:45.382Z,6.70
2019-03-13T14:12:01.546Z,6.60
2019-03-13T14:16:09.678Z,6.40
2019-03-13T14:20:17.934Z,6.40
2019-03-13T14:24:26.094Z,6.70
2019-03-13T14:28:34.243Z,6.70
2019-03-13T14:32:42.493Z,6.50
2019-03-13T14:36:50.566Z,6.30
2019-03-13T14:40:58.711Z,6.10
2019-03-13T14:45:07.251Z,6.00
2019-03-13T14:49:15.505Z,5.90
2019-03-13T14:53:23.706Z,5.90
2019-03-13T14:57:31.850Z,6.10
2019-03-13T15:01:40.051Z,6.60
2019-03-13T15:05:48.201Z,6.70
2019-03-13T15:09:57.033Z,6.70
2019-03-13T15:14:04.530Z,6.70
2019-03-13T15:18:12.676Z,6.60
2019-03-13T15:22:20.902Z,6.50
2019-03-13T15:26:28.369Z,6.40
2019-03-13T15:30:36.547Z,6.30
2019-03-13T15:34:44.069Z,6.30
2019-03-13T15:38:52.402Z,6.20
2019-03-13T15:43:00.542Z,6.30
2019-03-13T15:47:08.502Z,6.40
2019-03-13T15:51:16.718Z,6.60
2019-03-13T15:55:24.934Z,6.70
2019-03-13T15:59:33.092Z,6.60
2019-03-13T16:03:41.236Z,6.70
2019-03-13T16:07:48.739Z,6.70
2019-03-13T16:11:56.231Z,6.70
2019-03-13T16:16:03.701Z,6.80
2019-03-13T16:20:12.588Z,6.80
2019-03-13T16:24:20.050Z,6.80
2019-03-13T16:28:28.195Z,6.70
2019-03-13T16:32:43.885Z,6.60
2019-03-13T16:36:44.607Z,6.40
2019-03-13T16:40:52.830Z,6.30
2019-03-13T16:45:00.974Z,6.10
2019-03-13T16:49:08.476Z,6.10
2019-03-13T16:53:16.628Z,6.00
2019-03-13T16:57:24.788Z,6.00
2019-03-13T17:01:32.954Z,6.00
2019-03-13T17:05:41.190Z,5.90
2019-03-13T17:09:49.338Z,5.90
2019-03-13T17:13:57.578Z,5.90
2019-03-13T17:18:05.746Z,5.80
2019-03-13T17:22:13.198Z,5.70
2019-03-13T17:26:21.441Z,5.60
2019-03-13T17:30:29.608Z,5.50
2019-03-13T17:34:37.763Z,5.50
2019-03-13T17:38:46.126Z,5.40
2019-03-13T17:42:53.685Z,5.40
2019-03-13T17:47:01.806Z,5.40
2019-03-13T17:51:09.905Z,5.40
2019-03-13T17:55:18.067Z,5.40
2019-03-13T17:59:26.197Z,5.40
2019-03-13T18:03:34.308Z,5.30
2019-03-13T18:07:42.429Z,5.30
2019-03-13T18:11:50.552Z,5.30
2019-03-13T18:15:58.675Z,5.20
2019-03-13T18:20:09.057Z,5.10
2019-03-13T18:32:41.618Z,5.20
2019-03-13T18:36:45.327Z,5.00
2019-03-13T18:40:53.634Z,5.10
2019-03-13T18:45:01.743Z,5.20
2019-03-13T18:49:09.918Z,5.30
2019-03-13T18:53:18.096Z,5.40
2019-03-13T18:57:25.536Z,5.50
2019-03-13T19:01:33.699Z,5.60
2019-03-13T19:05:41.581Z,5.70
2019-03-13T19:09:49.586Z,5.70
2019-03-13T19:13:58.354Z,5.70
2019-03-13T19:18:05.906Z,5.80
2019-03-13T19:22:14.017Z,5.80
2019-03-13T19:26:22.275Z,5.80
2019-03-13T19:30:31.114Z,5.90
2019-03-13T19:34:38.614Z,5.80
2019-03-13T19:38:47.001Z,5.80
2019-03-13T19:42:55.135Z,5.80
2019-03-13T19:47:03.357Z,5.80
2019-03-13T19:51:11.486Z,5.80
2019-03-13T19:55:20.205Z,5.80
2019-03-13T19:59:27.664Z,5.80
2019-03-13T20:03:36.025Z,5.60
2019-03-13T20:07:43.730Z,5.50
2019-03-13T20:11:51.105Z,5.40
2019-03-13T20:15:58.577Z,5.30
2019-03-13T20:20:06.684Z,5.00
2019-03-13T20:24:14.224Z,4.80
2019-03-13T20:28:22.947Z,4.60
2019-03-13T20:32:31.327Z,4.60
2019-03-13T20:44:56.026Z,4.60
2019-03-13T20:49:04.067Z,4.50
2019-03-13T20:53:12.208Z,4.40
2019-03-13T21:01:28.288Z,4.40
2019-03-13T21:05:36.476Z,4.40
2019-03-13T21:09:44.591Z,4.30
2019-03-13T21:13:52.842Z,4.30
2019-03-13T21:18:01.640Z,4.30
2019-03-13T21:22:09.945Z,4.40
2019-03-13T21:26:18.157Z,4.40
2019-03-13T21:30:26.343Z,4.50
2019-03-13T21:34:33.953Z,4.60
2019-03-13T21:38:42.081Z,4.70
2019-03-13T21:42:50.262Z,4.80
2019-03-13T21:46:58.463Z,4.90
2019-03-13T21:51:07.134Z,4.80
2019-03-13T21:55:14.630Z,4.50
2019-03-13T21:59:22.805Z,4.30
2019-03-13T22:03:32.548Z,4.10
2019-03-13T22:07:39.257Z,3.80
2019-03-13T22:11:47.305Z,3.60
2019-03-13T22:15:58.553Z,3.50
2019-03-13T22:20:03.960Z,3.40
2019-03-13T22:24:12.080Z,3.40
2019-03-13T22:28:20.291Z,3.40
2019-03-13T22:32:28.500Z,3.30
2019-03-13T22:36:36.630Z,3.30
2019-03-13T22:40:44.797Z,3.30
2019-03-13T22:44:52.921Z,3.40
2019-03-13T22:49:01.070Z,3.40
2019-03-13T22:53:09.185Z,3.40
2019-03-13T22:57:17.354Z,3.50
2019-03-13T23:01:25.901Z,3.50
2019-03-13T23:05:36.121Z,3.60
2019-03-13T23:09:42.454Z,3.60
2019-03-13T23:13:50.661Z,3.60
2019-03-13T23:17:58.832Z,3.50
2019-03-13T23:22:06.947Z,3.50
2019-03-13T23:26:15.053Z,3.50
2019-03-13T23:30:23.189Z,3.40
2019-03-13T23:34:31.319Z,3.50
2019-03-13T23:38:39.438Z,3.50
2019-03-13T23:42:47.585Z,3.50
2019-03-13T23:46:55.701Z,3.50
2019-03-13T23:51:03.861Z,3.40
2019-03-13T23:55:12.004Z,3.40
2019-03-13T23:59:20.234Z,3.50
